sensor_id;sensor_type;location;lat;lon;timestamp;temperature;humidity
6496;DHT22;3281;47.658;9.166;2024-03-08T00:00:04;5.80;99.90
6496;DHT22;3281;47.658;9.166;2024-03-08T00:02:35;5.80;99.90
6496;DHT22;3281;47.658;9.166;2024-03-08T00:05:03;5.90;99.90
6496;DHT22;3281;47.658;9.166;2024-03-08T00:07:30;5.80;99.90
6496;DHT22;3281;47.658;9.166;2024-03-08T00:09:58;5.80;99.90
6496;DHT22;3281;47.658;9.166;2024-03-08T00:12:25;5.80;99.90
6496;DHT22;3281;47.658;9.166;2024-03-08T00:14:52;5.90;99.90
6496;DHT22;3281;47.658;9.166;2024-03-08T00:17:20;5.80;99.90
6496;DHT22;3281;47.658;9.166;2024-03-08T00:19:48;5.80;99.90
6496;DHT22;3281;47.658;9.166;2024-03-08T00:22:15;5.80;99.90
6496;DHT22;3281;47.658;9.166;2024-03-08T00:24:42;5.80;99.90
6496;DHT22;3281;47.658;9.166;2024-03-08T00:27:10;5.80;99.90
6496;DHT22;3281;47.658;9.166;2024-03-08T00:29:36;5.80;99.90
6496;DHT22;3281;47.658;9.166;2024-03-08T00:32:04;5.90;99.90
6496;DHT22;3281;47.658;9.166;2024-03-08T00:34:35;5.80;99.90
6496;DHT22;3281;47.658;9.166;2024-03-08T00:37:02;5.80;99.90
6496;DHT22;3281;47.658;9.166;2024-03-08T00:39:28;5.80;99.90
6496;DHT22;3281;47.658;9.166;2024-03-08T00:41:55;5.80;99.90
6496;DHT22;3281;47.658;9.166;2024-03-08T00:44:23;5.70;99.90
6496;DHT22;3281;47.658;9.166;2024-03-08T00:46:50;5.70;99.90
6496;DHT22;3281;47.658;9.166;2024-03-08T00:49:16;5.70;99.90
6496;DHT22;3281;47.658;9.166;2024-03-08T00:51:43;5.70;99.90
6496;DHT22;3281;47.658;9.166;2024-03-08T00:54:10;5.70;99.90
6496;DHT22;3281;47.658;9.166;2024-03-08T00:56:37;5.60;99.90
6496;DHT22;3281;47.658;9.166;2024-03-08T00:59:04;5.60;99.90
6496;DHT22;3281;47.658;9.166;2024-03-08T01:01:33;5.60;99.90
6496;DHT22;3281;47.658;9.166;2024-03-08T01:04:00;5.70;99.90
6496;DHT22;3281;47.658;9.166;2024-03-08T01:06:27;5.70;99.90
6496;DHT22;3281;47.658;9.166;2024-03-08T01:08:54;5.70;99.90
6496;DHT22;3281;47.658;9.166;2024-03-08T01:11:20;5.80;99.90
6496;DHT22;3281;47.658;9.166;2024-03-08T01:13:47;5.80;99.90
6496;DHT22;3281;47.658;9.166;2024-03-08T01:16:15;5.90;99.90
6496;DHT22;3281;47.658;9.166;2024-03-08T01:18:43;6.00;99.90
6496;DHT22;3281;47.658;9.166;2024-03-08T01:21:10;6.10;99.90
6496;DHT22;3281;47.658;9.166;2024-03-08T01:23:37;6.20;99.90
6496;DHT22;3281;47.658;9.166;2024-03-08T01:26:04;6.30;99.90
6496;DHT22;3281;47.658;9.166;2024-03-08T01:28:31;6.40;99.90
6496;DHT22;3281;47.658;9.166;2024-03-08T01:30:59;6.40;99.90
6496;DHT22;3281;47.658;9.166;2024-03-08T01:33:27;6.40;99.90
6496;DHT22;3281;47.658;9.166;2024-03-08T01:35:55;6.40;99.90
6496;DHT22;3281;47.658;9.166;2024-03-08T01:38:22;6.50;99.90
6496;DHT22;3281;47.658;9.166;2024-03-08T01:40:49;6.50;99.90
6496;DHT22;3281;47.658;9.166;2024-03-08T01:43:20;6.50;99.90
6496;DHT22;3281;47.658;9.166;2024-03-08T01:45:47;6.50;99.90
6496;DHT22;3281;47.658;9.166;2024-03-08T01:48:15;6.50;99.90
6496;DHT22;3281;47.658;9.166;2024-03-08T01:50:43;6.50;99.90
6496;DHT22;3281;47.658;9.166;2024-03-08T01:53:12;6.40;99.90
6496;DHT22;3281;47.658;9.166;2024-03-08T01:55:41;6.40;99.90
6496;DHT22;3281;47.658;9.166;2024-03-08T01:58:10;6.50;99.90
6496;DHT22;3281;47.658;9.166;2024-03-08T02:00:37;6.50;99.90
6496;DHT22;3281;47.658;9.166;2024-03-08T02:03:06;6.50;99.90
6496;DHT22;3281;47.658;9.166;2024-03-08T02:05:33;6.50;99.90
6496;DHT22;3281;47.658;9.166;2024-03-08T02:07:59;6.50;99.90
6496;DHT22;3281;47.658;9.166;2024-03-08T02:10:28;6.50;99.90
6496;DHT22;3281;47.658;9.166;2024-03-08T02:12:55;6.50;99.90
6496;DHT22;3281;47.658;9.166;2024-03-08T02:15:22;6.50;99.90
6496;DHT22;3281;47.658;9.166;2024-03-08T02:17:48;6.40;99.90
6496;DHT22;3281;47.658;9.166;2024-03-08T02:20:15;6.30;99.90
6496;DHT22;3281;47.658;9.166;2024-03-08T02:22:46;6.30;99.90
6496;DHT22;3281;47.658;9.166;2024-03-08T02:25:13;6.20;99.90
6496;DHT22;3281;47.658;9.166;2024-03-08T02:27:39;6.30;99.90
6496;DHT22;3281;47.658;9.166;2024-03-08T02:30:07;6.30;99.90
6496;DHT22;3281;47.658;9.166;2024-03-08T02:32:35;6.30;99.90
6496;DHT22;3281;47.658;9.166;2024-03-08T02:35:02;6.30;99.90
6496;DHT22;3281;47.658;9.166;2024-03-08T02:37:28;6.30;99.90
6496;DHT22;3281;47.658;9.166;2024-03-08T02:39:57;6.30;99.90
6496;DHT22;3281;47.658;9.166;2024-03-08T02:42:23;6.20;99.90
6496;DHT22;3281;47.658;9.166;2024-03-08T02:44:50;6.10;99.90
6496;DHT22;3281;47.658;9.166;2024-03-08T02:47:17;6.10;99.90
6496;DHT22;3281;47.658;9.166;2024-03-08T02:49:44;6.00;99.90
6496;DHT22;3281;47.658;9.166;2024-03-08T02:52:11;5.90;99.90
6496;DHT22;3281;47.658;9.166;2024-03-08T02:54:37;5.90;99.90
6496;DHT22;3281;47.658;9.166;2024-03-08T02:57:05;5.90;99.90
6496;DHT22;3281;47.658;9.166;2024-03-08T02:59:33;6.00;99.90
6496;DHT22;3281;47.658;9.166;2024-03-08T03:02:00;6.00;99.90
6496;DHT22;3281;47.658;9.166;2024-03-08T03:04:27;6.00;99.90
6496;DHT22;3281;47.658;9.166;2024-03-08T03:06:54;6.00;99.90
6496;DHT22;3281;47.658;9.166;2024-03-08T03:09:21;6.00;99.90
6496;DHT22;3281;47.658;9.166;2024-03-08T03:11:53;6.00;99.90
6496;DHT22;3281;47.658;9.166;2024-03-08T03:14:21;5.90;99.90
6496;DHT22;3281;47.658;9.166;2024-03-08T03:16:47;5.80;99.90
6496;DHT22;3281;47.658;9.166;2024-03-08T03:19:15;5.90;99.90
6496;DHT22;3281;47.658;9.166;2024-03-08T03:21:42;5.90;99.90
6496;DHT22;3281;47.658;9.166;2024-03-08T03:24:09;6.00;99.90
6496;DHT22;3281;47.658;9.166;2024-03-08T03:26:36;6.10;99.90
6496;DHT22;3281;47.658;9.166;2024-03-08T03:29:04;6.20;99.90
6496;DHT22;3281;47.658;9.166;2024-03-08T03:31:35;6.20;99.90
6496;DHT22;3281;47.658;9.166;2024-03-08T03:34:03;6.30;99.90
6496;DHT22;3281;47.658;9.166;2024-03-08T03:36:30;6.30;99.90
6496;DHT22;3281;47.658;9.166;2024-03-08T03:38:57;6.20;99.90
6496;DHT22;3281;47.658;9.166;2024-03-08T03:41:35;6.20;99.90
6496;DHT22;3281;47.658;9.166;2024-03-08T03:44:02;6.20;99.90
6496;DHT22;3281;47.658;9.166;2024-03-08T03:46:29;6.20;99.90
6496;DHT22;3281;47.658;9.166;2024-03-08T03:48:57;6.20;99.90
6496;DHT22;3281;47.658;9.166;2024-03-08T03:51:24;6.10;99.90
6496;DHT22;3281;47.658;9.166;2024-03-08T03:53:51;6.10;99.90
6496;DHT22;3281;47.658;9.166;2024-03-08T03:56:18;6.10;99.90
6496;DHT22;3281;47.658;9.166;2024-03-08T03:58:45;6.20;99.90
6496;DHT22;3281;47.658;9.166;2024-03-08T04:01:11;6.00;99.90
6496;DHT22;3281;47.658;9.166;2024-03-08T04:03:41;5.90;99.90
6496;DHT22;3281;47.658;9.166;2024-03-08T04:06:09;5.80;99.90
6496;DHT22;3281;47.658;9.166;2024-03-08T04:08:36;5.90;99.90
6496;DHT22;3281;47.658;9.166;2024-03-08T04:11:03;5.90;99.90
6496;DHT22;3281;47.658;9.166;2024-03-08T04:13:30;6.00;99.90
6496;DHT22;3281;47.658;9.166;2024-03-08T04:15:56;6.00;99.90
6496;DHT22;3281;47.658;9.166;2024-03-08T04:18:23;6.00;99.90
6496;DHT22;3281;47.658;9.166;2024-03-08T04:20:50;6.10;99.90
6496;DHT22;3281;47.658;9.166;2024-03-08T04:23:18;6.10;99.90
6496;DHT22;3281;47.658;9.166;2024-03-08T04:25:45;6.00;99.90
6496;DHT22;3281;47.658;9.166;2024-03-08T04:28:11;5.90;99.90
6496;DHT22;3281;47.658;9.166;2024-03-08T04:30:38;6.00;99.90
6496;DHT22;3281;47.658;9.166;2024-03-08T04:33:06;6.00;99.90
6496;DHT22;3281;47.658;9.166;2024-03-08T04:35:34;6.00;99.90
6496;DHT22;3281;47.658;9.166;2024-03-08T04:38:00;6.00;99.90
6496;DHT22;3281;47.658;9.166;2024-03-08T04:40:32;6.00;99.90
6496;DHT22;3281;47.658;9.166;2024-03-08T04:42:59;5.90;99.90
6496;DHT22;3281;47.658;9.166;2024-03-08T04:45:26;5.80;99.90
6496;DHT22;3281;47.658;9.166;2024-03-08T04:47:53;5.80;99.90
6496;DHT22;3281;47.658;9.166;2024-03-08T04:50:20;5.70;99.90
6496;DHT22;3281;47.658;9.166;2024-03-08T04:52:46;5.70;99.90
6496;DHT22;3281;47.658;9.166;2024-03-08T04:55:14;5.60;99.90
6496;DHT22;3281;47.658;9.166;2024-03-08T04:57:42;5.70;99.90
6496;DHT22;3281;47.658;9.166;2024-03-08T05:00:10;5.60;99.90
6496;DHT22;3281;47.658;9.166;2024-03-08T05:02:37;5.60;99.90
6496;DHT22;3281;47.658;9.166;2024-03-08T05:05:05;5.70;99.90
6496;DHT22;3281;47.658;9.166;2024-03-08T05:07:32;5.80;99.90
6496;DHT22;3281;47.658;9.166;2024-03-08T05:09:59;5.80;99.90
6496;DHT22;3281;47.658;9.166;2024-03-08T05:12:26;5.80;99.90
6496;DHT22;3281;47.658;9.166;2024-03-08T05:14:54;5.80;99.90
6496;DHT22;3281;47.658;9.166;2024-03-08T05:17:20;5.80;99.90
6496;DHT22;3281;47.658;9.166;2024-03-08T05:19:49;5.80;99.90
6496;DHT22;3281;47.658;9.166;2024-03-08T05:22:16;5.80;99.90
6496;DHT22;3281;47.658;9.166;2024-03-08T05:24:43;5.80;99.90
6496;DHT22;3281;47.658;9.166;2024-03-08T05:27:09;5.80;99.90
6496;DHT22;3281;47.658;9.166;2024-03-08T05:29:36;5.80;99.90
6496;DHT22;3281;47.658;9.166;2024-03-08T05:32:04;5.80;99.90
6496;DHT22;3281;47.658;9.166;2024-03-08T05:34:32;5.80;99.90
6496;DHT22;3281;47.658;9.166;2024-03-08T05:36:59;5.90;99.90
6496;DHT22;3281;47.658;9.166;2024-03-08T05:39:26;5.90;99.90
6496;DHT22;3281;47.658;9.166;2024-03-08T05:41:53;5.90;99.90
6496;DHT22;3281;47.658;9.166;2024-03-08T05:44:21;6.00;99.90
6496;DHT22;3281;47.658;9.166;2024-03-08T05:46:48;6.00;99.90
6496;DHT22;3281;47.658;9.166;2024-03-08T05:49:17;6.00;99.90
6496;DHT22;3281;47.658;9.166;2024-03-08T05:51:44;6.00;99.90
6496;DHT22;3281;47.658;9.166;2024-03-08T05:54:13;5.90;99.90
6496;DHT22;3281;47.658;9.166;2024-03-08T05:56:40;5.90;99.90
6496;DHT22;3281;47.658;9.166;2024-03-08T05:59:07;5.90;99.90
6496;DHT22;3281;47.658;9.166;2024-03-08T06:01:35;5.80;99.90
6496;DHT22;3281;47.658;9.166;2024-03-08T06:04:02;5.80;99.90
6496;DHT22;3281;47.658;9.166;2024-03-08T06:06:31;5.80;99.90
6496;DHT22;3281;47.658;9.166;2024-03-08T06:08:57;5.70;99.90
6496;DHT22;3281;47.658;9.166;2024-03-08T06:11:25;5.80;99.90
6496;DHT22;3281;47.658;9.166;2024-03-08T06:13:53;5.70;99.90
6496;DHT22;3281;47.658;9.166;2024-03-08T06:16:25;5.70;99.90
6496;DHT22;3281;47.658;9.166;2024-03-08T06:18:55;5.70;99.90
6496;DHT22;3281;47.658;9.166;2024-03-08T06:21:22;5.70;99.90
6496;DHT22;3281;47.658;9.166;2024-03-08T06:23:53;5.70;99.90
6496;DHT22;3281;47.658;9.166;2024-03-08T06:26:20;5.70;99.90
6496;DHT22;3281;47.658;9.166;2024-03-08T06:28:48;5.70;99.90
6496;DHT22;3281;47.658;9.166;2024-03-08T06:31:14;5.70;99.90
6496;DHT22;3281;47.658;9.166;2024-03-08T06:33:41;5.70;99.90
6496;DHT22;3281;47.658;9.166;2024-03-08T06:36:09;5.60;99.90
6496;DHT22;3281;47.658;9.166;2024-03-08T06:38:37;5.60;99.90
6496;DHT22;3281;47.658;9.166;2024-03-08T06:41:09;5.70;99.90
6496;DHT22;3281;47.658;9.166;2024-03-08T06:43:40;5.80;99.90
6496;DHT22;3281;47.658;9.166;2024-03-08T06:46:07;5.80;99.90
6496;DHT22;3281;47.658;9.166;2024-03-08T06:48:34;5.90;99.90
6496;DHT22;3281;47.658;9.166;2024-03-08T06:51:03;5.90;99.90
6496;DHT22;3281;47.658;9.166;2024-03-08T06:53:29;5.90;99.90
6496;DHT22;3281;47.658;9.166;2024-03-08T06:55:56;5.90;99.90
6496;DHT22;3281;47.658;9.166;2024-03-08T06:58:24;6.00;99.90
6496;DHT22;3281;47.658;9.166;2024-03-08T07:00:51;6.10;99.90
6496;DHT22;3281;47.658;9.166;2024-03-08T07:03:18;6.10;99.90
6496;DHT22;3281;47.658;9.166;2024-03-08T07:05:45;6.10;99.90
6496;DHT22;3281;47.658;9.166;2024-03-08T07:08:12;6.20;99.90
6496;DHT22;3281;47.658;9.166;2024-03-08T07:10:39;6.10;99.90
6496;DHT22;3281;47.658;9.166;2024-03-08T07:13:07;6.10;99.90
6496;DHT22;3281;47.658;9.166;2024-03-08T07:15:35;6.10;99.90
6496;DHT22;3281;47.658;9.166;2024-03-08T07:18:02;6.10;99.90
6496;DHT22;3281;47.658;9.166;2024-03-08T07:20:29;6.20;99.90
6496;DHT22;3281;47.658;9.166;2024-03-08T07:22:55;6.20;99.90
6496;DHT22;3281;47.658;9.166;2024-03-08T07:25:22;6.20;99.90
6496;DHT22;3281;47.658;9.166;2024-03-08T07:27:51;6.20;99.90
6496;DHT22;3281;47.658;9.166;2024-03-08T07:30:18;6.20;99.90
6496;DHT22;3281;47.658;9.166;2024-03-08T07:33:00;6.30;99.90
6496;DHT22;3281;47.658;9.166;2024-03-08T07:35:27;6.40;99.90
6496;DHT22;3281;47.658;9.166;2024-03-08T07:37:54;6.40;99.90
6496;DHT22;3281;47.658;9.166;2024-03-08T07:40:21;6.40;99.90
6496;DHT22;3281;47.658;9.166;2024-03-08T07:42:48;6.40;99.90
6496;DHT22;3281;47.658;9.166;2024-03-08T07:45:15;6.40;99.90
6496;DHT22;3281;47.658;9.166;2024-03-08T07:47:45;6.30;99.90
6496;DHT22;3281;47.658;9.166;2024-03-08T07:50:13;6.20;99.90
6496;DHT22;3281;47.658;9.166;2024-03-08T07:52:41;6.30;99.90
6496;DHT22;3281;47.658;9.166;2024-03-08T07:55:09;6.30;99.90
6496;DHT22;3281;47.658;9.166;2024-03-08T07:57:36;6.40;99.90
6496;DHT22;3281;47.658;9.166;2024-03-08T08:00:05;6.50;99.90
6496;DHT22;3281;47.658;9.166;2024-03-08T08:02:33;6.50;99.90
6496;DHT22;3281;47.658;9.166;2024-03-08T08:05:00;6.60;99.90
6496;DHT22;3281;47.658;9.166;2024-03-08T08:07:29;6.70;99.90
6496;DHT22;3281;47.658;9.166;2024-03-08T08:09:55;6.70;99.90
6496;DHT22;3281;47.658;9.166;2024-03-08T08:12:22;6.70;99.90
6496;DHT22;3281;47.658;9.166;2024-03-08T08:14:49;6.70;99.90
6496;DHT22;3281;47.658;9.166;2024-03-08T08:17:16;6.70;99.90
6496;DHT22;3281;47.658;9.166;2024-03-08T08:19:42;6.60;99.90
6496;DHT22;3281;47.658;9.166;2024-03-08T08:22:09;6.70;99.90
6496;DHT22;3281;47.658;9.166;2024-03-08T08:24:38;6.80;99.90
6496;DHT22;3281;47.658;9.166;2024-03-08T08:27:05;6.80;99.90
6496;DHT22;3281;47.658;9.166;2024-03-08T08:29:32;6.80;99.90
6496;DHT22;3281;47.658;9.166;2024-03-08T08:32:00;6.80;99.90
6496;DHT22;3281;47.658;9.166;2024-03-08T08:34:27;6.90;99.90
6496;DHT22;3281;47.658;9.166;2024-03-08T08:36:56;6.90;99.90
6496;DHT22;3281;47.658;9.166;2024-03-08T08:39:23;6.90;99.90
6496;DHT22;3281;47.658;9.166;2024-03-08T08:41:52;7.00;99.90
6496;DHT22;3281;47.658;9.166;2024-03-08T08:44:19;7.10;99.90
6496;DHT22;3281;47.658;9.166;2024-03-08T08:46:46;7.10;99.90
6496;DHT22;3281;47.658;9.166;2024-03-08T08:49:12;7.10;99.90
6496;DHT22;3281;47.658;9.166;2024-03-08T08:51:41;7.10;99.90
6496;DHT22;3281;47.658;9.166;2024-03-08T08:54:08;7.20;99.90
6496;DHT22;3281;47.658;9.166;2024-03-08T08:56:35;7.20;99.90
6496;DHT22;3281;47.658;9.166;2024-03-08T08:59:04;7.20;99.90
6496;DHT22;3281;47.658;9.166;2024-03-08T09:01:30;7.30;99.90
6496;DHT22;3281;47.658;9.166;2024-03-08T09:03:58;7.40;99.90
6496;DHT22;3281;47.658;9.166;2024-03-08T09:06:25;7.40;99.90
6496;DHT22;3281;47.658;9.166;2024-03-08T09:08:51;7.50;99.90
6496;DHT22;3281;47.658;9.166;2024-03-08T09:11:18;7.50;99.90
6496;DHT22;3281;47.658;9.166;2024-03-08T09:13:45;7.30;99.90
6496;DHT22;3281;47.658;9.166;2024-03-08T09:16:13;7.30;99.90
6496;DHT22;3281;47.658;9.166;2024-03-08T09:18:41;7.30;99.90
6496;DHT22;3281;47.658;9.166;2024-03-08T09:21:08;7.40;99.90
6496;DHT22;3281;47.658;9.166;2024-03-08T09:23:35;7.40;99.90
6496;DHT22;3281;47.658;9.166;2024-03-08T09:26:02;7.40;99.90
6496;DHT22;3281;47.658;9.166;2024-03-08T09:28:29;7.40;99.90
6496;DHT22;3281;47.658;9.166;2024-03-08T09:30:56;7.40;99.90
6496;DHT22;3281;47.658;9.166;2024-03-08T09:33:25;7.40;99.90
6496;DHT22;3281;47.658;9.166;2024-03-08T09:35:54;7.50;99.90
6496;DHT22;3281;47.658;9.166;2024-03-08T09:38:23;7.60;99.90
6496;DHT22;3281;47.658;9.166;2024-03-08T09:40:50;7.50;99.90
6496;DHT22;3281;47.658;9.166;2024-03-08T09:43:18;7.40;99.90
6496;DHT22;3281;47.658;9.166;2024-03-08T09:45:45;7.40;99.90
6496;DHT22;3281;47.658;9.166;2024-03-08T09:48:16;7.40;99.90
6496;DHT22;3281;47.658;9.166;2024-03-08T09:50:46;7.40;99.90
6496;DHT22;3281;47.658;9.166;2024-03-08T09:53:13;7.30;99.90
6496;DHT22;3281;47.658;9.166;2024-03-08T09:55:40;7.30;99.90
6496;DHT22;3281;47.658;9.166;2024-03-08T09:58:12;7.30;99.90
6496;DHT22;3281;47.658;9.166;2024-03-08T10:01:14;7.30;99.90
6496;DHT22;3281;47.658;9.166;2024-03-08T10:03:41;7.30;99.90
6496;DHT22;3281;47.658;9.166;2024-03-08T10:06:09;7.30;99.90
6496;DHT22;3281;47.658;9.166;2024-03-08T10:08:36;7.30;99.90
6496;DHT22;3281;47.658;9.166;2024-03-08T10:11:03;7.40;99.90
6496;DHT22;3281;47.658;9.166;2024-03-08T10:13:30;7.40;99.90
6496;DHT22;3281;47.658;9.166;2024-03-08T10:15:58;7.50;99.90
6496;DHT22;3281;47.658;9.166;2024-03-08T10:18:24;7.50;99.90
6496;DHT22;3281;47.658;9.166;2024-03-08T10:21:03;7.70;99.90
6496;DHT22;3281;47.658;9.166;2024-03-08T10:23:32;7.60;99.90
6496;DHT22;3281;47.658;9.166;2024-03-08T10:26:10;7.60;99.90
6496;DHT22;3281;47.658;9.166;2024-03-08T10:28:36;7.70;99.90
6496;DHT22;3281;47.658;9.166;2024-03-08T10:31:03;7.70;99.90
6496;DHT22;3281;47.658;9.166;2024-03-08T10:33:31;7.80;99.90
6496;DHT22;3281;47.658;9.166;2024-03-08T10:35:58;7.80;99.90
6496;DHT22;3281;47.658;9.166;2024-03-08T10:38:26;7.90;99.90
6496;DHT22;3281;47.658;9.166;2024-03-08T10:40:58;8.00;99.90
6496;DHT22;3281;47.658;9.166;2024-03-08T10:43:25;8.00;99.90
6496;DHT22;3281;47.658;9.166;2024-03-08T10:46:03;8.10;99.90
6496;DHT22;3281;47.658;9.166;2024-03-08T10:48:32;8.20;99.90
6496;DHT22;3281;47.658;9.166;2024-03-08T10:51:02;8.30;99.90
6496;DHT22;3281;47.658;9.166;2024-03-08T10:53:29;8.30;99.90
6496;DHT22;3281;47.658;9.166;2024-03-08T10:55:58;8.40;99.90
6496;DHT22;3281;47.658;9.166;2024-03-08T10:58:25;8.50;99.90
6496;DHT22;3281;47.658;9.166;2024-03-08T11:00:53;8.50;99.90
6496;DHT22;3281;47.658;9.166;2024-03-08T11:03:49;8.50;99.90
6496;DHT22;3281;47.658;9.166;2024-03-08T11:06:19;8.30;99.90
6496;DHT22;3281;47.658;9.166;2024-03-08T11:08:48;8.40;99.90
6496;DHT22;3281;47.658;9.166;2024-03-08T11:11:28;8.40;99.90
6496;DHT22;3281;47.658;9.166;2024-03-08T11:13:57;8.50;99.90
6496;DHT22;3281;47.658;9.166;2024-03-08T11:16:38;8.50;99.90
6496;DHT22;3281;47.658;9.166;2024-03-08T11:19:26;8.50;99.90
6496;DHT22;3281;47.658;9.166;2024-03-08T11:22:01;8.60;99.90
6496;DHT22;3281;47.658;9.166;2024-03-08T11:24:28;8.60;99.90
6496;DHT22;3281;47.658;9.166;2024-03-08T11:27:05;8.80;99.90
6496;DHT22;3281;47.658;9.166;2024-03-08T11:29:38;8.90;99.90
6496;DHT22;3281;47.658;9.166;2024-03-08T11:32:08;9.10;99.90
6496;DHT22;3281;47.658;9.166;2024-03-08T11:34:36;9.30;99.90
6496;DHT22;3281;47.658;9.166;2024-03-08T11:37:04;9.50;99.90
6496;DHT22;3281;47.658;9.166;2024-03-08T11:39:32;9.70;99.90
6496;DHT22;3281;47.658;9.166;2024-03-08T11:41:59;9.90;99.90
6496;DHT22;3281;47.658;9.166;2024-03-08T11:44:27;10.10;99.90
6496;DHT22;3281;47.658;9.166;2024-03-08T11:46:57;10.00;99.90
6496;DHT22;3281;47.658;9.166;2024-03-08T11:49:23;10.00;99.90
6496;DHT22;3281;47.658;9.166;2024-03-08T11:51:52;10.10;99.90
6496;DHT22;3281;47.658;9.166;2024-03-08T11:54:19;10.20;99.90
6496;DHT22;3281;47.658;9.166;2024-03-08T11:56:45;10.30;99.90
6496;DHT22;3281;47.658;9.166;2024-03-08T11:59:13;10.60;99.90
6496;DHT22;3281;47.658;9.166;2024-03-08T12:01:41;10.90;99.90
6496;DHT22;3281;47.658;9.166;2024-03-08T12:04:12;11.10;99.90
6496;DHT22;3281;47.658;9.166;2024-03-08T12:06:40;11.30;99.90
6496;DHT22;3281;47.658;9.166;2024-03-08T12:09:08;11.40;99.90
6496;DHT22;3281;47.658;9.166;2024-03-08T12:11:36;11.50;99.90
6496;DHT22;3281;47.658;9.166;2024-03-08T12:14:02;11.80;99.90
6496;DHT22;3281;47.658;9.166;2024-03-08T12:16:29;11.90;99.90
6496;DHT22;3281;47.658;9.166;2024-03-08T12:18:57;11.90;99.90
6496;DHT22;3281;47.658;9.166;2024-03-08T12:21:26;12.10;99.90
6496;DHT22;3281;47.658;9.166;2024-03-08T12:24:05;12.30;99.90
6496;DHT22;3281;47.658;9.166;2024-03-08T12:26:35;12.60;99.90
6496;DHT22;3281;47.658;9.166;2024-03-08T12:29:16;13.10;99.90
6496;DHT22;3281;47.658;9.166;2024-03-08T12:31:46;13.20;99.90
6496;DHT22;3281;47.658;9.166;2024-03-08T12:34:14;13.30;99.90
6496;DHT22;3281;47.658;9.166;2024-03-08T12:36:45;13.60;99.90
6496;DHT22;3281;47.658;9.166;2024-03-08T12:39:15;13.50;99.90
6496;DHT22;3281;47.658;9.166;2024-03-08T12:41:43;13.20;99.90
6496;DHT22;3281;47.658;9.166;2024-03-08T12:44:10;13.60;99.90
6496;DHT22;3281;47.658;9.166;2024-03-08T12:46:37;14.20;99.90
6496;DHT22;3281;47.658;9.166;2024-03-08T12:49:07;15.00;99.90
6496;DHT22;3281;47.658;9.166;2024-03-08T12:51:35;15.80;99.90
6496;DHT22;3281;47.658;9.166;2024-03-08T12:54:04;16.60;99.90
6496;DHT22;3281;47.658;9.166;2024-03-08T12:56:34;17.10;99.90
6496;DHT22;3281;47.658;9.166;2024-03-08T12:59:03;16.70;99.90
6496;DHT22;3281;47.658;9.166;2024-03-08T13:01:30;16.10;99.90
6496;DHT22;3281;47.658;9.166;2024-03-08T13:03:58;16.10;99.90
6496;DHT22;3281;47.658;9.166;2024-03-08T13:06:25;16.30;99.90
6496;DHT22;3281;47.658;9.166;2024-03-08T13:08:55;16.60;99.90
6496;DHT22;3281;47.658;9.166;2024-03-08T13:11:22;16.40;99.90
6496;DHT22;3281;47.658;9.166;2024-03-08T13:13:50;16.00;99.90
6496;DHT22;3281;47.658;9.166;2024-03-08T13:16:16;15.60;99.90
6496;DHT22;3281;47.658;9.166;2024-03-08T13:18:46;15.30;99.90
6496;DHT22;3281;47.658;9.166;2024-03-08T13:21:14;15.00;99.90
6496;DHT22;3281;47.658;9.166;2024-03-08T13:23:44;14.90;99.90
6496;DHT22;3281;47.658;9.166;2024-03-08T13:26:16;14.90;99.90
6496;DHT22;3281;47.658;9.166;2024-03-08T13:28:43;15.20;99.90
6496;DHT22;3281;47.658;9.166;2024-03-08T13:31:10;14.90;99.90
6496;DHT22;3281;47.658;9.166;2024-03-08T13:33:37;14.90;99.90
6496;DHT22;3281;47.658;9.166;2024-03-08T13:36:05;14.90;99.90
6496;DHT22;3281;47.658;9.166;2024-03-08T13:38:40;15.50;99.90
6496;DHT22;3281;47.658;9.166;2024-03-08T13:41:08;16.30;99.90
6496;DHT22;3281;47.658;9.166;2024-03-08T13:43:36;16.40;99.90
6496;DHT22;3281;47.658;9.166;2024-03-08T13:46:03;17.20;99.90
6496;DHT22;3281;47.658;9.166;2024-03-08T13:48:29;17.30;99.90
6496;DHT22;3281;47.658;9.166;2024-03-08T13:50:57;17.10;99.90
6496;DHT22;3281;47.658;9.166;2024-03-08T13:53:23;17.00;99.90
6496;DHT22;3281;47.658;9.166;2024-03-08T13:55:50;17.00;99.90
6496;DHT22;3281;47.658;9.166;2024-03-08T13:58:17;16.10;99.90
6496;DHT22;3281;47.658;9.166;2024-03-08T14:00:47;15.10;99.90
6496;DHT22;3281;47.658;9.166;2024-03-08T14:03:14;14.40;99.90
6496;DHT22;3281;47.658;9.166;2024-03-08T14:05:41;13.80;99.90
6496;DHT22;3281;47.658;9.166;2024-03-08T14:08:08;13.70;99.90
6496;DHT22;3281;47.658;9.166;2024-03-08T14:10:35;13.60;99.90
6496;DHT22;3281;47.658;9.166;2024-03-08T14:13:03;13.80;99.90
6496;DHT22;3281;47.658;9.166;2024-03-08T14:15:30;13.50;99.90
6496;DHT22;3281;47.658;9.166;2024-03-08T14:17:58;13.30;99.90
6496;DHT22;3281;47.658;9.166;2024-03-08T14:20:25;13.40;99.90
6496;DHT22;3281;47.658;9.166;2024-03-08T14:22:52;13.30;99.90
6496;DHT22;3281;47.658;9.166;2024-03-08T14:25:19;13.30;99.90
6496;DHT22;3281;47.658;9.166;2024-03-08T14:27:46;13.20;99.90
6496;DHT22;3281;47.658;9.166;2024-03-08T14:30:13;13.00;99.90
6496;DHT22;3281;47.658;9.166;2024-03-08T14:32:58;12.50;99.90
6496;DHT22;3281;47.658;9.166;2024-03-08T14:35:25;12.70;99.90
6496;DHT22;3281;47.658;9.166;2024-03-08T14:37:52;13.00;99.90
6496;DHT22;3281;47.658;9.166;2024-03-08T14:40:19;13.60;99.90
6496;DHT22;3281;47.658;9.166;2024-03-08T14:42:48;14.00;99.90
6496;DHT22;3281;47.658;9.166;2024-03-08T14:45:15;14.20;99.90
6496;DHT22;3281;47.658;9.166;2024-03-08T14:47:42;14.60;99.90
6496;DHT22;3281;47.658;9.166;2024-03-08T14:50:10;14.60;99.90
6496;DHT22;3281;47.658;9.166;2024-03-08T14:52:38;15.50;99.90
6496;DHT22;3281;47.658;9.166;2024-03-08T14:55:05;16.40;99.90
6496;DHT22;3281;47.658;9.166;2024-03-08T14:57:32;17.10;99.90
6496;DHT22;3281;47.658;9.166;2024-03-08T14:59:59;17.50;99.90
6496;DHT22;3281;47.658;9.166;2024-03-08T15:02:31;18.20;99.90
6496;DHT22;3281;47.658;9.166;2024-03-08T15:05:02;17.90;99.90
6496;DHT22;3281;47.658;9.166;2024-03-08T15:07:35;18.30;99.90
6496;DHT22;3281;47.658;9.166;2024-03-08T15:10:02;18.80;99.90
6496;DHT22;3281;47.658;9.166;2024-03-08T15:12:36;19.10;99.90
6496;DHT22;3281;47.658;9.166;2024-03-08T15:15:06;18.50;99.90
6496;DHT22;3281;47.658;9.166;2024-03-08T15:17:33;18.50;99.90
6496;DHT22;3281;47.658;9.166;2024-03-08T15:20:00;18.30;99.90
6496;DHT22;3281;47.658;9.166;2024-03-08T15:22:27;17.70;99.90
6496;DHT22;3281;47.658;9.166;2024-03-08T15:24:55;17.10;99.90
6496;DHT22;3281;47.658;9.166;2024-03-08T15:27:23;16.90;99.90
6496;DHT22;3281;47.658;9.166;2024-03-08T15:29:50;16.60;99.90
6496;DHT22;3281;47.658;9.166;2024-03-08T15:32:21;16.20;99.90
6496;DHT22;3281;47.658;9.166;2024-03-08T15:34:48;15.30;99.90
6496;DHT22;3281;47.658;9.166;2024-03-08T15:37:15;14.50;99.90
6496;DHT22;3281;47.658;9.166;2024-03-08T15:39:42;13.70;99.90
6496;DHT22;3281;47.658;9.166;2024-03-08T15:42:10;12.90;99.90
6496;DHT22;3281;47.658;9.166;2024-03-08T15:44:37;12.30;99.90
6496;DHT22;3281;47.658;9.166;2024-03-08T15:47:06;11.90;99.90
6496;DHT22;3281;47.658;9.166;2024-03-08T15:49:36;11.60;99.90
6496;DHT22;3281;47.658;9.166;2024-03-08T15:52:03;11.20;99.90
6496;DHT22;3281;47.658;9.166;2024-03-08T15:54:31;11.00;99.90
6496;DHT22;3281;47.658;9.166;2024-03-08T15:56:58;10.80;99.90
6496;DHT22;3281;47.658;9.166;2024-03-08T15:59:26;10.70;99.90
6496;DHT22;3281;47.658;9.166;2024-03-08T16:01:54;10.60;99.90
6496;DHT22;3281;47.658;9.166;2024-03-08T16:04:21;10.50;99.90
6496;DHT22;3281;47.658;9.166;2024-03-08T16:06:50;10.50;99.90
6496;DHT22;3281;47.658;9.166;2024-03-08T16:09:17;10.60;99.90
6496;DHT22;3281;47.658;9.166;2024-03-08T16:11:45;10.80;99.90
6496;DHT22;3281;47.658;9.166;2024-03-08T16:14:11;10.90;99.90
6496;DHT22;3281;47.658;9.166;2024-03-08T16:16:42;11.00;99.90